sensor_id;sensor_type;location;lat;lon;timestamp;temperature;humidity
49441;DHT22;35317;51.978;6.296;2023-07-29T00:04:28;19.00;99.90
49441;DHT22;35317;51.978;6.296;2023-07-29T00:09:28;19.00;99.90
49441;DHT22;35317;51.978;6.296;2023-07-29T00:14:29;19.00;99.90
49441;DHT22;35317;51.978;6.296;2023-07-29T00:19:30;18.90;99.90
49441;DHT22;35317;51.978;6.296;2023-07-29T00:24:31;18.80;99.90
49441;DHT22;35317;51.978;6.296;2023-07-29T00:29:31;18.80;99.90
49441;DHT22;35317;51.978;6.296;2023-07-29T00:34:32;18.70;99.90
49441;DHT22;35317;51.978;6.296;2023-07-29T00:39:33;18.70;99.90
49441;DHT22;35317;51.978;6.296;2023-07-29T00:44:33;18.70;99.90
49441;DHT22;35317;51.978;6.296;2023-07-29T00:49:34;18.60;99.90
49441;DHT22;35317;51.978;6.296;2023-07-29T00:54:35;18.60;99.90
49441;DHT22;35317;51.978;6.296;2023-07-29T00:59:36;18.50;99.90
49441;DHT22;35317;51.978;6.296;2023-07-29T01:04:37;18.50;99.90
49441;DHT22;35317;51.978;6.296;2023-07-29T01:20:19;18.30;99.90
49441;DHT22;35317;51.978;6.296;2023-07-29T01:25:20;18.30;99.90
49441;DHT22;35317;51.978;6.296;2023-07-29T01:30:24;18.30;99.90
49441;DHT22;35317;51.978;6.296;2023-07-29T01:35:40;18.30;99.90
49441;DHT22;35317;51.978;6.296;2023-07-29T01:40:43;18.40;99.90
49441;DHT22;35317;51.978;6.296;2023-07-29T01:45:45;18.40;99.90
49441;DHT22;35317;51.978;6.296;2023-07-29T01:50:45;18.30;99.90
49441;DHT22;35317;51.978;6.296;2023-07-29T01:55:46;18.30;99.90
49441;DHT22;35317;51.978;6.296;2023-07-29T02:00:47;18.30;99.90
49441;DHT22;35317;51.978;6.296;2023-07-29T02:05:48;18.30;99.90
49441;DHT22;35317;51.978;6.296;2023-07-29T02:10:48;18.30;99.90
49441;DHT22;35317;51.978;6.296;2023-07-29T02:15:49;18.30;99.90
49441;DHT22;35317;51.978;6.296;2023-07-29T02:20:50;18.20;99.90
49441;DHT22;35317;51.978;6.296;2023-07-29T02:25:51;18.20;99.90
49441;DHT22;35317;51.978;6.296;2023-07-29T02:31:09;18.30;99.90
49441;DHT22;35317;51.978;6.296;2023-07-29T02:36:15;18.30;99.90
49441;DHT22;35317;51.978;6.296;2023-07-29T02:41:16;18.30;99.90
49441;DHT22;35317;51.978;6.296;2023-07-29T02:46:17;18.30;99.90
49441;DHT22;35317;51.978;6.296;2023-07-29T02:51:18;18.30;99.90
49441;DHT22;35317;51.978;6.296;2023-07-29T02:56:18;18.30;99.90
49441;DHT22;35317;51.978;6.296;2023-07-29T03:01:20;18.40;99.90
49441;DHT22;35317;51.978;6.296;2023-07-29T03:06:20;18.40;99.90
49441;DHT22;35317;51.978;6.296;2023-07-29T03:11:21;18.50;99.90
49441;DHT22;35317;51.978;6.296;2023-07-29T03:16:22;18.50;99.90
49441;DHT22;35317;51.978;6.296;2023-07-29T03:21:23;18.60;99.90
49441;DHT22;35317;51.978;6.296;2023-07-29T03:26:24;18.60;99.90
49441;DHT22;35317;51.978;6.296;2023-07-29T03:31:26;18.60;99.90
49441;DHT22;35317;51.978;6.296;2023-07-29T03:36:28;18.70;99.90
49441;DHT22;35317;51.978;6.296;2023-07-29T03:41:29;18.70;99.90
49441;DHT22;35317;51.978;6.296;2023-07-29T03:46:31;18.70;99.90
49441;DHT22;35317;51.978;6.296;2023-07-29T03:51:32;18.80;99.90
49441;DHT22;35317;51.978;6.296;2023-07-29T03:56:33;18.80;99.90
49441;DHT22;35317;51.978;6.296;2023-07-29T04:01:35;18.80;99.90
49441;DHT22;35317;51.978;6.296;2023-07-29T04:06:36;18.90;99.90
49441;DHT22;35317;51.978;6.296;2023-07-29T04:11:37;18.80;99.90
49441;DHT22;35317;51.978;6.296;2023-07-29T04:16:38;18.80;99.90
49441;DHT22;35317;51.978;6.296;2023-07-29T04:21:38;18.80;99.90
49441;DHT22;35317;51.978;6.296;2023-07-29T04:26:39;18.80;99.90
49441;DHT22;35317;51.978;6.296;2023-07-29T04:31:40;18.80;99.90
49441;DHT22;35317;51.978;6.296;2023-07-29T04:36:41;18.80;99.90
49441;DHT22;35317;51.978;6.296;2023-07-29T04:41:41;18.70;99.90
49441;DHT22;35317;51.978;6.296;2023-07-29T04:46:42;18.70;99.90
49441;DHT22;35317;51.978;6.296;2023-07-29T04:51:43;18.70;99.90
49441;DHT22;35317;51.978;6.296;2023-07-29T04:56:44;18.70;99.90
49441;DHT22;35317;51.978;6.296;2023-07-29T05:01:45;18.70;99.90
49441;DHT22;35317;51.978;6.296;2023-07-29T05:06:46;18.60;99.90
49441;DHT22;35317;51.978;6.296;2023-07-29T05:11:46;18.70;99.90
49441;DHT22;35317;51.978;6.296;2023-07-29T05:16:47;18.70;99.90
49441;DHT22;35317;51.978;6.296;2023-07-29T05:21:48;18.70;99.90
49441;DHT22;35317;51.978;6.296;2023-07-29T05:26:49;18.70;99.90
49441;DHT22;35317;51.978;6.296;2023-07-29T05:31:50;18.70;99.90
49441;DHT22;35317;51.978;6.296;2023-07-29T05:36:51;18.70;99.90
49441;DHT22;35317;51.978;6.296;2023-07-29T05:41:51;18.80;99.90
49441;DHT22;35317;51.978;6.296;2023-07-29T05:46:52;18.90;99.90
49441;DHT22;35317;51.978;6.296;2023-07-29T05:51:53;18.90;99.90
49441;DHT22;35317;51.978;6.296;2023-07-29T05:56:54;19.00;99.90
49441;DHT22;35317;51.978;6.296;2023-07-29T06:01:56;19.00;99.90
49441;DHT22;35317;51.978;6.296;2023-07-29T06:06:57;19.00;99.90
49441;DHT22;35317;51.978;6.296;2023-07-29T06:11:57;19.00;99.90
49441;DHT22;35317;51.978;6.296;2023-07-29T06:16:58;19.00;99.90
49441;DHT22;35317;51.978;6.296;2023-07-29T06:21:59;19.10;99.90
49441;DHT22;35317;51.978;6.296;2023-07-29T06:27:02;19.10;99.90
49441;DHT22;35317;51.978;6.296;2023-07-29T06:32:03;19.20;99.90
49441;DHT22;35317;51.978;6.296;2023-07-29T06:37:04;19.20;99.90
49441;DHT22;35317;51.978;6.296;2023-07-29T06:42:05;19.30;99.90
49441;DHT22;35317;51.978;6.296;2023-07-29T06:47:06;19.40;99.90
49441;DHT22;35317;51.978;6.296;2023-07-29T06:52:07;19.50;99.70
49441;DHT22;35317;51.978;6.296;2023-07-29T06:57:08;19.60;99.40
49441;DHT22;35317;51.978;6.296;2023-07-29T07:02:09;19.60;99.30
49441;DHT22;35317;51.978;6.296;2023-07-29T07:07:09;19.70;99.10
49441;DHT22;35317;51.978;6.296;2023-07-29T07:12:10;19.80;98.90
49441;DHT22;35317;51.978;6.296;2023-07-29T07:17:11;19.80;99.00
49441;DHT22;35317;51.978;6.296;2023-07-29T07:22:12;19.80;98.70
49441;DHT22;35317;51.978;6.296;2023-07-29T07:27:13;19.80;98.60
49441;DHT22;35317;51.978;6.296;2023-07-29T07:32:14;19.80;98.50
49441;DHT22;35317;51.978;6.296;2023-07-29T07:37:15;19.80;98.50
49441;DHT22;35317;51.978;6.296;2023-07-29T07:42:16;19.90;98.30
49441;DHT22;35317;51.978;6.296;2023-07-29T07:47:17;20.10;98.20
49441;DHT22;35317;51.978;6.296;2023-07-29T07:52:17;20.30;97.90
49441;DHT22;35317;51.978;6.296;2023-07-29T07:57:19;20.40;97.50
49441;DHT22;35317;51.978;6.296;2023-07-29T08:02:20;20.40;97.30
49441;DHT22;35317;51.978;6.296;2023-07-29T08:07:21;20.50;97.10
49441;DHT22;35317;51.978;6.296;2023-07-29T08:12:22;20.80;96.90
49441;DHT22;35317;51.978;6.296;2023-07-29T08:17:23;21.20;96.60
49441;DHT22;35317;51.978;6.296;2023-07-29T08:22:24;21.50;96.20
49441;DHT22;35317;51.978;6.296;2023-07-29T08:27:25;21.70;95.70
49441;DHT22;35317;51.978;6.296;2023-07-29T08:32:26;22.00;95.20
49441;DHT22;35317;51.978;6.296;2023-07-29T08:37:29;22.30;94.80
49441;DHT22;35317;51.978;6.296;2023-07-29T08:42:32;22.50;94.20
49441;DHT22;35317;51.978;6.296;2023-07-29T08:47:35;22.50;93.40
49441;DHT22;35317;51.978;6.296;2023-07-29T08:52:36;22.40;93.10
49441;DHT22;35317;51.978;6.296;2023-07-29T08:57:37;22.40;93.00
49441;DHT22;35317;51.978;6.296;2023-07-29T09:02:38;22.40;92.90
49441;DHT22;35317;51.978;6.296;2023-07-29T09:13:31;22.00;92.90
49441;DHT22;35317;51.978;6.296;2023-07-29T09:18:31;22.20;93.10
49441;DHT22;35317;51.978;6.296;2023-07-29T09:23:42;22.40;92.80
49441;DHT22;35317;51.978;6.296;2023-07-29T09:28:44;22.70;92.50
49441;DHT22;35317;51.978;6.296;2023-07-29T09:33:45;22.80;92.20
49441;DHT22;35317;51.978;6.296;2023-07-29T09:38:45;22.90;91.80
49441;DHT22;35317;51.978;6.296;2023-07-29T09:44:24;22.80;91.40
49441;DHT22;35317;51.978;6.296;2023-07-29T09:56:26;23.00;90.80
49441;DHT22;35317;51.978;6.296;2023-07-29T10:01:27;23.10;90.80
49441;DHT22;35317;51.978;6.296;2023-07-29T10:06:29;23.40;90.50
49441;DHT22;35317;51.978;6.296;2023-07-29T10:11:30;23.50;90.10
49441;DHT22;35317;51.978;6.296;2023-07-29T10:16:32;23.70;90.10
49441;DHT22;35317;51.978;6.296;2023-07-29T10:21:34;23.80;89.50
49441;DHT22;35317;51.978;6.296;2023-07-29T10:26:38;23.90;88.80
49441;DHT22;35317;51.978;6.296;2023-07-29T10:31:42;24.10;88.50
49441;DHT22;35317;51.978;6.296;2023-07-29T10:36:44;24.20;87.80
49441;DHT22;35317;51.978;6.296;2023-07-29T10:41:59;24.00;87.70
49441;DHT22;35317;51.978;6.296;2023-07-29T10:47:13;24.00;87.40
49441;DHT22;35317;51.978;6.296;2023-07-29T10:52:16;23.80;87.50
49441;DHT22;35317;51.978;6.296;2023-07-29T10:57:34;23.70;87.60
49441;DHT22;35317;51.978;6.296;2023-07-29T11:02:37;23.70;87.20
49441;DHT22;35317;51.978;6.296;2023-07-29T11:07:48;23.80;86.70
49441;DHT22;35317;51.978;6.296;2023-07-29T11:12:50;24.10;86.10
49441;DHT22;35317;51.978;6.296;2023-07-29T11:17:54;24.20;85.70
49441;DHT22;35317;51.978;6.296;2023-07-29T11:23:01;24.40;85.60
49441;DHT22;35317;51.978;6.296;2023-07-29T11:28:02;24.60;85.40
49441;DHT22;35317;51.978;6.296;2023-07-29T11:33:03;24.60;85.00
49441;DHT22;35317;51.978;6.296;2023-07-29T11:38:04;24.50;84.50
49441;DHT22;35317;51.978;6.296;2023-07-29T11:43:05;24.70;84.00
49441;DHT22;35317;51.978;6.296;2023-07-29T11:48:06;24.90;83.10
49441;DHT22;35317;51.978;6.296;2023-07-29T11:53:07;25.10;82.20
49441;DHT22;35317;51.978;6.296;2023-07-29T11:58:08;25.40;81.20
49441;DHT22;35317;51.978;6.296;2023-07-29T12:03:10;25.50;79.20
49441;DHT22;35317;51.978;6.296;2023-07-29T12:08:12;25.30;78.20
49441;DHT22;35317;51.978;6.296;2023-07-29T12:13:13;25.10;78.70
49441;DHT22;35317;51.978;6.296;2023-07-29T12:18:15;25.00;78.70
49441;DHT22;35317;51.978;6.296;2023-07-29T12:23:16;24.80;78.90
49441;DHT22;35317;51.978;6.296;2023-07-29T12:28:16;24.50;79.40
49441;DHT22;35317;51.978;6.296;2023-07-29T12:33:32;24.10;81.80
49441;DHT22;35317;51.978;6.296;2023-07-29T12:38:33;23.60;86.30
49441;DHT22;35317;51.978;6.296;2023-07-29T12:43:34;22.80;89.60
49441;DHT22;35317;51.978;6.296;2023-07-29T12:48:35;22.30;91.10
49441;DHT22;35317;51.978;6.296;2023-07-29T12:53:36;21.80;92.20
49441;DHT22;35317;51.978;6.296;2023-07-29T12:58:37;21.50;93.10
49441;DHT22;35317;51.978;6.296;2023-07-29T13:03:37;21.20;93.80
49441;DHT22;35317;51.978;6.296;2023-07-29T13:08:38;20.90;94.60
49441;DHT22;35317;51.978;6.296;2023-07-29T13:13:39;20.90;95.50
49441;DHT22;35317;51.978;6.296;2023-07-29T13:18:40;21.20;95.80
49441;DHT22;35317;51.978;6.296;2023-07-29T13:23:41;21.60;96.40
49441;DHT22;35317;51.978;6.296;2023-07-29T13:28:42;22.00;96.00
49441;DHT22;35317;51.978;6.296;2023-07-29T13:33:42;22.20;95.80
49441;DHT22;35317;51.978;6.296;2023-07-29T13:38:43;22.40;95.90
49441;DHT22;35317;51.978;6.296;2023-07-29T13:43:44;22.70;95.70
49441;DHT22;35317;51.978;6.296;2023-07-29T13:48:44;22.90;95.40
49441;DHT22;35317;51.978;6.296;2023-07-29T13:53:45;23.20;95.10
49441;DHT22;35317;51.978;6.296;2023-07-29T13:58:46;23.20;94.50
49441;DHT22;35317;51.978;6.296;2023-07-29T14:03:47;23.30;94.70
49441;DHT22;35317;51.978;6.296;2023-07-29T14:08:47;23.70;94.30
49441;DHT22;35317;51.978;6.296;2023-07-29T14:13:48;24.00;93.70
49441;DHT22;35317;51.978;6.296;2023-07-29T14:18:49;24.30;92.80
49441;DHT22;35317;51.978;6.296;2023-07-29T14:23:50;24.50;92.30
49441;DHT22;35317;51.978;6.296;2023-07-29T14:35:59;24.70;90.20
49441;DHT22;35317;51.978;6.296;2023-07-29T14:41:05;24.80;90.60
49441;DHT22;35317;51.978;6.296;2023-07-29T14:46:05;24.80;90.60
49441;DHT22;35317;51.978;6.296;2023-07-29T14:51:09;25.00;90.60
49441;DHT22;35317;51.978;6.296;2023-07-29T14:56:10;25.20;90.20
49441;DHT22;35317;51.978;6.296;2023-07-29T15:01:11;25.40;90.10
49441;DHT22;35317;51.978;6.296;2023-07-29T15:06:12;25.70;89.80
49441;DHT22;35317;51.978;6.296;2023-07-29T15:11:13;25.90;88.00
49441;DHT22;35317;51.978;6.296;2023-07-29T15:16:14;26.10;85.60
49441;DHT22;35317;51.978;6.296;2023-07-29T15:21:14;26.00;85.90
49441;DHT22;35317;51.978;6.296;2023-07-29T15:26:15;26.10;84.50
49441;DHT22;35317;51.978;6.296;2023-07-29T15:31:16;26.10;84.00
49441;DHT22;35317;51.978;6.296;2023-07-29T15:36:18;26.20;82.90
49441;DHT22;35317;51.978;6.296;2023-07-29T15:41:21;26.00;82.70
49441;DHT22;35317;51.978;6.296;2023-07-29T15:46:22;25.90;82.00
49441;DHT22;35317;51.978;6.296;2023-07-29T15:51:23;25.90;82.40
49441;DHT22;35317;51.978;6.296;2023-07-29T15:56:24;25.90;82.30
49441;DHT22;35317;51.978;6.296;2023-07-29T16:01:27;25.80;80.80
49441;DHT22;35317;51.978;6.296;2023-07-29T16:06:29;25.70;80.60
49441;DHT22;35317;51.978;6.296;2023-07-29T16:11:30;25.60;80.40
49441;DHT22;35317;51.978;6.296;2023-07-29T16:16:31;25.50;80.50
49441;DHT22;35317;51.978;6.296;2023-07-29T16:21:32;25.50;81.10
49441;DHT22;35317;51.978;6.296;2023-07-29T16:26:33;25.70;81.80
49441;DHT22;35317;51.978;6.296;2023-07-29T16:31:34;25.70;82.10
49441;DHT22;35317;51.978;6.296;2023-07-29T16:36:35;25.70;82.40
49441;DHT22;35317;51.978;6.296;2023-07-29T16:41:36;25.60;81.40
49441;DHT22;35317;51.978;6.296;2023-07-29T16:46:37;25.40;81.70
49441;DHT22;35317;51.978;6.296;2023-07-29T16:51:42;25.10;82.70
49441;DHT22;35317;51.978;6.296;2023-07-29T16:56:47;25.00;82.40
49441;DHT22;35317;51.978;6.296;2023-07-29T17:01:48;24.90;83.20
49441;DHT22;35317;51.978;6.296;2023-07-29T17:06:49;24.80;84.00
49441;DHT22;35317;51.978;6.296;2023-07-29T17:11:50;24.60;85.10
49441;DHT22;35317;51.978;6.296;2023-07-29T17:16:51;24.50;85.70
49441;DHT22;35317;51.978;6.296;2023-07-29T17:21:52;24.60;85.40
49441;DHT22;35317;51.978;6.296;2023-07-29T17:26:53;24.50;83.80
49441;DHT22;35317;51.978;6.296;2023-07-29T17:31:53;24.30;83.70
49441;DHT22;35317;51.978;6.296;2023-07-29T17:36:54;24.20;84.20
49441;DHT22;35317;51.978;6.296;2023-07-29T17:41:55;24.10;85.20
49441;DHT22;35317;51.978;6.296;2023-07-29T17:46:56;24.00;86.10
49441;DHT22;35317;51.978;6.296;2023-07-29T17:51:56;23.90;86.90
49441;DHT22;35317;51.978;6.296;2023-07-29T17:56:57;23.80;87.60
49441;DHT22;35317;51.978;6.296;2023-07-29T18:01:58;23.70;88.10
49441;DHT22;35317;51.978;6.296;2023-07-29T18:06:59;23.60;88.70
49441;DHT22;35317;51.978;6.296;2023-07-29T18:12:00;23.40;89.30
49441;DHT22;35317;51.978;6.296;2023-07-29T18:17:04;23.30;89.80
49441;DHT22;35317;51.978;6.296;2023-07-29T18:22:05;23.20;90.20
49441;DHT22;35317;51.978;6.296;2023-07-29T18:27:07;23.10;90.50
49441;DHT22;35317;51.978;6.296;2023-07-29T18:32:08;22.90;90.80
49441;DHT22;35317;51.978;6.296;2023-07-29T18:37:09;22.80;91.30
49441;DHT22;35317;51.978;6.296;2023-07-29T18:42:10;22.70;91.70
49441;DHT22;35317;51.978;6.296;2023-07-29T18:47:10;22.70;91.90
49441;DHT22;35317;51.978;6.296;2023-07-29T18:52:15;22.60;92.10
49441;DHT22;35317;51.978;6.296;2023-07-29T18:57:19;22.50;92.30
49441;DHT22;35317;51.978;6.296;2023-07-29T19:02:20;22.40;92.50
49441;DHT22;35317;51.978;6.296;2023-07-29T19:07:21;22.30;92.90
49441;DHT22;35317;51.978;6.296;2023-07-29T19:12:23;22.10;93.10
49441;DHT22;35317;51.978;6.296;2023-07-29T19:17:24;22.00;93.30
49441;DHT22;35317;51.978;6.296;2023-07-29T19:22:28;21.90;93.50
49441;DHT22;35317;51.978;6.296;2023-07-29T19:27:29;21.80;93.80
49441;DHT22;35317;51.978;6.296;2023-07-29T19:32:31;21.70;93.90
49441;DHT22;35317;51.978;6.296;2023-07-29T19:37:32;21.60;94.10
49441;DHT22;35317;51.978;6.296;2023-07-29T19:42:33;21.50;94.70
49441;DHT22;35317;51.978;6.296;2023-07-29T19:47:33;21.20;95.20
49441;DHT22;35317;51.978;6.296;2023-07-29T19:52:34;20.90;96.00
49441;DHT22;35317;51.978;6.296;2023-07-29T19:57:35;20.50;96.90
49441;DHT22;35317;51.978;6.296;2023-07-29T20:02:36;20.10;97.80
49441;DHT22;35317;51.978;6.296;2023-07-29T20:07:37;19.80;98.60
49441;DHT22;35317;51.978;6.296;2023-07-29T20:12:37;19.60;99.30
49441;DHT22;35317;51.978;6.296;2023-07-29T20:17:38;19.50;99.90
49441;DHT22;35317;51.978;6.296;2023-07-29T20:22:43;19.40;99.90
49441;DHT22;35317;51.978;6.296;2023-07-29T20:27:44;19.30;99.90
49441;DHT22;35317;51.978;6.296;2023-07-29T20:32:45;19.20;99.90
49441;DHT22;35317;51.978;6.296;2023-07-29T20:37:45;19.00;99.90
49441;DHT22;35317;51.978;6.296;2023-07-29T20:42:46;18.90;99.90
49441;DHT22;35317;51.978;6.296;2023-07-29T20:47:47;18.70;99.90
49441;DHT22;35317;51.978;6.296;2023-07-29T20:52:48;18.50;99.90
49441;DHT22;35317;51.978;6.296;2023-07-29T20:57:48;18.30;99.90
49441;DHT22;35317;51.978;6.296;2023-07-29T21:02:49;18.10;99.90
49441;DHT22;35317;51.978;6.296;2023-07-29T21:07:53;17.90;99.90
49441;DHT22;35317;51.978;6.296;2023-07-29T21:12:54;17.80;99.90
49441;DHT22;35317;51.978;6.296;2023-07-29T21:17:55;17.60;99.90
49441;DHT22;35317;51.978;6.296;2023-07-29T21:22:55;17.50;99.90
49441;DHT22;35317;51.978;6.296;2023-07-29T21:27:56;17.20;99.90
49441;DHT22;35317;51.978;6.296;2023-07-29T21:32:57;17.10;99.90
49441;DHT22;35317;51.978;6.296;2023-07-29T21:37:58;17.00;99.90
49441;DHT22;35317;51.978;6.296;2023-07-29T21:42:59;16.90;99.90
49441;DHT22;35317;51.978;6.296;2023-07-29T21:47:59;16.80;99.90
49441;DHT22;35317;51.978;6.296;2023-07-29T21:53:00;16.70;99.90
49441;DHT22;35317;51.978;6.296;2023-07-29T21:58:01;16.70;99.90
49441;DHT22;35317;51.978;6.296;2023-07-29T22:03:02;16.60;99.90
49441;DHT22;35317;51.978;6.296;2023-07-29T22:08:03;16.50;99.90
49441;DHT22;35317;51.978;6.296;2023-07-29T22:13:04;16.40;99.90
49441;DHT22;35317;51.978;6.296;2023-07-29T22:18:05;16.30;99.90
49441;DHT22;35317;51.978;6.296;2023-07-29T22:23:06;16.30;99.90
49441;DHT22;35317;51.978;6.296;2023-07-29T22:28:06;16.20;99.90
49441;DHT22;35317;51.978;6.296;2023-07-29T22:33:07;16.10;99.90
49441;DHT22;35317;51.978;6.296;2023-07-29T22:38:08;16.00;99.90
49441;DHT22;35317;51.978;6.296;2023-07-29T22:43:09;16.00;99.90
49441;DHT22;35317;51.978;6.296;2023-07-29T22:48:09;15.90;99.90
49441;DHT22;35317;51.978;6.296;2023-07-29T22:53:10;15.80;99.90
49441;DHT22;35317;51.978;6.296;2023-07-29T22:58:11;15.80;99.90
49441;DHT22;35317;51.978;6.296;2023-07-29T23:03:13;15.70;99.90
49441;DHT22;35317;51.978;6.296;2023-07-29T23:08:13;15.70;99.90
49441;DHT22;35317;51.978;6.296;2023-07-29T23:13:14;15.60;99.90
49441;DHT22;35317;51.978;6.296;2023-07-29T23:18:15;15.60;99.90
49441;DHT22;35317;51.978;6.296;2023-07-29T23:23:16;15.60;99.90
49441;DHT22;35317;51.978;6.296;2023-07-29T23:28:17;15.50;99.90
49441;DHT22;35317;51.978;6.296;2023-07-29T23:33:18;15.50;99.90
49441;DHT22;35317;51.978;6.296;2023-07-29T23:38:19;15.50;99.90
49441;DHT22;35317;51.978;6.296;2023-07-29T23:43:22;15.50;99.90
49441;DHT22;35317;51.978;6.296;2023-07-29T23:48:22;15.50;99.90
49441;DHT22;35317;51.978;6.296;2023-07-29T23:53:23;15.50;99.90
49441;DHT22;35317;51.978;6.296;2023-07-29T23:58:24;15.50;99.90
